createdAt,value
2022-11-18T05:16:23.948Z,9.68
2022-11-18T05:18:57.914Z,9.15
2022-11-18T05:23:52.031Z,8.23
2022-11-18T05:26:18.558Z,10.27
2022-11-18T05:28:46.867Z,9.82
2022-11-18T05:31:16.464Z,8.77
2022-11-18T05:33:44.313Z,10.45
2022-11-18T05:36:16.787Z,10.15
2022-11-18T05:38:47.526Z,10.68
2022-11-18T05:41:35.164Z,10.75
2022-11-18T05:44:03.099Z,9.68
2022-11-18T05:46:30.629Z,9.43
2022-11-18T05:48:57.550Z,8.77
2022-11-18T05:51:24.261Z,8.38
2022-11-18T05:53:52.314Z,8.35
2022-11-18T05:56:31.305Z,9.02
2022-11-18T05:58:57.820Z,7.75
2022-11-18T06:01:28.627Z,8.25
2022-11-18T06:03:55.253Z,8.85
2022-11-18T06:06:23.481Z,9.00
2022-11-18T06:09:01.754Z,8.48
2022-11-18T06:11:29.373Z,8.05
2022-11-18T06:14:08.962Z,8.70
2022-11-18T06:16:41.269Z,7.80
2022-11-18T06:19:09.325Z,9.18
2022-11-18T06:21:36.996Z,8.50
2022-11-18T06:24:05.651Z,8.52
2022-11-18T06:26:33.237Z,9.20
2022-11-18T06:28:59.756Z,9.50
2022-11-18T06:31:33.458Z,8.27
2022-11-18T06:33:59.962Z,7.80
2022-11-18T06:36:26.765Z,8.88
2022-11-18T06:38:53.197Z,8.40
2022-11-18T06:41:19.785Z,9.23
2022-11-18T06:43:46.331Z,8.75
2022-11-18T06:46:34.559Z,9.95
2022-11-18T06:49:01.833Z,9.75
2022-11-18T06:51:29.670Z,9.68
2022-11-18T06:53:58.299Z,8.57
2022-11-18T06:56:30.949Z,7.95
2022-11-18T06:59:00.581Z,8.70
2022-11-18T07:01:28.996Z,8.10
2022-11-18T07:03:58.270Z,9.32
2022-11-18T07:06:27.641Z,8.55
2022-11-18T07:08:54.387Z,8.25
2022-11-18T07:11:25.852Z,8.13
2022-11-18T07:13:52.650Z,7.63
2022-11-18T07:16:21.814Z,7.78
2022-11-18T07:18:49.767Z,7.35
2022-11-18T07:21:18.593Z,7.70
2022-11-18T07:23:45.623Z,7.13
2022-11-18T07:26:15.096Z,8.40
2022-11-18T07:28:42.330Z,7.50
2022-11-18T07:31:14.191Z,7.25
2022-11-18T07:33:42.386Z,5.88
2022-11-18T07:36:14.647Z,6.50
2022-11-18T07:38:42.003Z,7.80
2022-11-18T07:41:11.896Z,7.93
2022-11-18T07:43:38.781Z,6.82
2022-11-18T07:46:14.408Z,7.25
2022-11-18T07:48:43.890Z,7.50
2022-11-18T07:51:12.170Z,7.40
2022-11-18T07:53:40.867Z,8.15
2022-11-18T07:56:10.014Z,7.57
2022-11-18T07:58:36.952Z,7.43
2022-11-18T08:01:08.814Z,8.38
2022-11-18T08:03:35.618Z,8.18
2022-11-18T08:06:06.405Z,8.23
2022-11-18T08:08:35.972Z,7.75
2022-11-18T08:11:10.138Z,8.85
2022-11-18T08:14:04.223Z,9.40
2022-11-18T08:16:30.848Z,8.27
2022-11-18T08:18:58.920Z,8.48
2022-11-18T08:21:29.592Z,9.18
2022-11-18T08:23:57.534Z,8.93
2022-11-18T08:26:25.038Z,8.07
2022-11-18T08:28:52.066Z,8.10
2022-11-18T08:31:21.611Z,8.70
2022-11-18T08:33:48.390Z,8.10
2022-11-18T08:36:20.782Z,8.75
2022-11-18T08:38:47.493Z,8.13
2022-11-18T08:41:15.608Z,8.68
2022-11-18T08:43:42.280Z,8.27
2022-11-18T08:46:08.865Z,7.82
2022-11-18T08:48:35.324Z,6.72
2022-11-18T08:51:03.582Z,6.00
2022-11-18T08:53:30.079Z,6.75
2022-11-18T08:55:58.375Z,6.22
2022-11-18T08:58:26.031Z,5.45
2022-11-18T09:00:52.864Z,5.68
2022-11-18T09:03:19.966Z,5.40
2022-11-18T09:05:47.378Z,5.40
2022-11-18T09:08:13.950Z,5.53
2022-11-18T09:10:40.449Z,6.18
2022-11-18T09:13:38.624Z,5.88
2022-11-18T09:15:53.469Z,5.03
2022-11-18T09:18:20.043Z,5.10
2022-11-18T09:21:02.906Z,5.30
2022-11-18T09:23:32.343Z,5.28
2022-11-18T09:26:04.816Z,4.88
2022-11-18T09:28:31.699Z,4.68
2022-11-18T09:30:58.211Z,4.60
2022-11-18T09:33:25.016Z,4.80
2022-11-18T09:35:51.673Z,4.65
2022-11-18T09:38:18.222Z,4.90
2022-11-18T09:41:12.507Z,4.50
2022-11-18T09:44:06.141Z,4.63
2022-11-18T09:46:57.344Z,4.10
2022-11-18T09:49:30.224Z,3.95
2022-11-18T09:51:57.919Z,4.68
2022-11-18T09:54:38.421Z,3.88
2022-11-18T09:57:41.909Z,3.78
2022-11-18T10:00:15.686Z,3.53
2022-11-18T10:03:04.826Z,4.30
2022-11-18T10:05:49.905Z,4.18
2022-11-18T10:08:19.372Z,4.45
2022-11-18T10:10:56.580Z,5.03
2022-11-18T10:13:44.880Z,4.55
2022-11-18T10:16:29.243Z,4.35
2022-11-18T10:19:24.277Z,4.53
2022-11-18T10:25:23.054Z,3.40
2022-11-18T10:27:51.318Z,3.55
2022-11-18T10:30:24.724Z,3.47
2022-11-18T10:33:02.125Z,3.10
2022-11-18T10:35:37.327Z,2.88
2022-11-18T10:38:12.781Z,2.72
2022-11-18T10:41:06.455Z,2.28
2022-11-18T10:43:52.520Z,2.53
2022-11-18T10:46:26.256Z,2.40
2022-11-18T10:49:17.291Z,2.35
2022-11-18T10:51:48.482Z,2.33
2022-11-18T10:54:22.736Z,2.65
2022-11-18T10:56:58.747Z,2.20
2022-11-18T10:59:35.083Z,2.08
2022-11-18T11:02:24.257Z,2.42
2022-11-18T11:05:41.170Z,2.30
2022-11-18T11:08:39.323Z,1.75
2022-11-18T11:11:05.872Z,2.22
2022-11-18T11:13:37.488Z,1.95
2022-11-18T11:16:07.191Z,2.10
2022-11-18T11:18:41.443Z,2.28
2022-11-18T11:21:22.700Z,1.80
2022-11-18T11:24:42.608Z,2.28
2022-11-18T11:30:25.246Z,1.70
2022-11-18T11:33:24.744Z,1.70
2022-11-18T11:35:58.095Z,1.27
2022-11-18T11:38:55.097Z,1.20
2022-11-18T11:41:24.801Z,1.50
2022-11-18T11:44:40.325Z,1.20
2022-11-18T11:47:47.912Z,1.67
2022-11-18T11:51:00.000Z,2.00
2022-11-18T11:54:00.070Z,1.23
2022-11-18T11:56:38.199Z,1.48
2022-11-18T11:59:16.387Z,1.77
2022-11-18T12:01:53.571Z,1.88
2022-11-18T12:04:42.880Z,1.65
2022-11-18T12:07:18.732Z,2.67
2022-11-18T12:10:13.177Z,2.88
2022-11-18T12:13:08.894Z,1.70
2022-11-18T12:16:05.150Z,1.25
2022-11-18T12:18:41.878Z,1.65
2022-11-18T12:21:08.642Z,0.95
2022-11-18T12:24:18.157Z,1.00
2022-11-18T12:26:47.149Z,1.20
2022-11-18T12:29:23.770Z,0.98
2022-11-18T12:32:04.497Z,0.90
2022-11-18T12:34:41.503Z,0.77
2022-11-18T12:37:38.779Z,1.08
2022-11-18T12:40:05.776Z,0.70
2022-11-18T12:42:56.871Z,0.85
2022-11-18T12:45:46.340Z,1.20
2022-11-18T12:48:39.019Z,1.10
2022-11-18T12:51:14.504Z,0.85
2022-11-18T12:53:43.879Z,0.57
2022-11-18T12:56:37.102Z,0.35
2022-11-18T12:59:05.621Z,0.55
2022-11-18T13:01:36.416Z,0.40
2022-11-18T13:04:14.742Z,0.43
2022-11-18T13:06:43.289Z,0.50
2022-11-18T13:09:20.651Z,0.35
2022-11-18T13:12:01.241Z,0.40
2022-11-18T13:14:53.171Z,0.38
2022-11-18T13:17:50.352Z,0.55
2022-11-18T13:20:37.637Z,0.40
2022-11-18T13:23:28.816Z,0.60
2022-11-18T13:26:03.987Z,0.30
2022-11-18T13:28:48.319Z,0.40
2022-11-18T13:31:31.472Z,0.50
2022-11-18T13:34:03.011Z,0.70
2022-11-18T13:36:31.638Z,0.35
2022-11-18T13:39:04.457Z,0.40
2022-11-18T13:41:33.662Z,0.65
2022-11-18T13:44:25.162Z,0.57
2022-11-18T13:47:09.538Z,0.40
2022-11-18T13:49:51.162Z,0.60
2022-11-18T13:52:26.204Z,0.50
2022-11-18T13:54:55.021Z,0.50
2022-11-18T13:57:25.722Z,0.40
2022-11-18T13:59:54.883Z,0.73
2022-11-18T14:02:22.204Z,0.50
2022-11-18T14:04:59.807Z,0.50
2022-11-18T14:07:35.565Z,0.60
2022-11-18T14:10:05.401Z,0.63
2022-11-18T14:12:34.130Z,0.80
2022-11-18T14:15:29.686Z,0.57
2022-11-18T14:17:58.989Z,0.30
2022-11-18T14:20:30.244Z,0.70
2022-11-18T14:23:01.541Z,0.57
2022-11-18T14:25:36.068Z,0.70
2022-11-18T14:28:33.739Z,0.38
2022-11-18T14:31:05.029Z,0.73
2022-11-18T14:33:33.150Z,0.73
2022-11-18T14:36:00.907Z,0.82
2022-11-18T14:39:11.781Z,0.52
2022-11-18T14:41:49.138Z,0.60
2022-11-18T14:44:17.068Z,0.57
2022-11-18T14:46:46.771Z,0.60
2022-11-18T14:49:18.267Z,0.60
2022-11-18T14:51:46.113Z,0.88
2022-11-18T14:54:17.224Z,0.50
2022-11-18T14:57:01.450Z,0.50
2022-11-18T14:59:28.214Z,0.80
2022-11-18T15:01:56.276Z,0.40
2022-11-18T15:04:23.210Z,0.50
2022-11-18T15:06:53.990Z,0.70
2022-11-18T15:09:27.138Z,0.68
2022-11-18T15:11:54.775Z,0.60
2022-11-18T15:14:21.826Z,0.38
2022-11-18T15:16:48.581Z,0.73
2022-11-18T15:19:16.078Z,0.30
2022-11-18T15:21:43.588Z,0.50
2022-11-18T15:24:11.113Z,0.70
2022-11-18T15:26:44.053Z,0.90
2022-11-18T15:29:25.003Z,0.98
2022-11-18T15:32:18.763Z,0.90
2022-11-18T15:34:45.328Z,0.82
2022-11-18T15:37:13.070Z,0.90
2022-11-18T15:39:39.590Z,1.25
2022-11-18T15:42:06.119Z,0.73
2022-11-18T15:44:32.561Z,1.17
2022-11-18T15:47:00.169Z,1.42
2022-11-18T15:49:26.660Z,0.93
2022-11-18T15:51:53.243Z,0.80
2022-11-18T15:54:20.096Z,1.00
2022-11-18T15:56:46.794Z,0.80
2022-11-18T15:59:15.224Z,1.33
2022-11-18T16:01:43.982Z,1.40
2022-11-18T16:04:12.492Z,4.30
2022-11-18T16:06:39.482Z,1.33
2022-11-18T16:09:06.962Z,0.90
2022-11-18T16:11:52.261Z,0.75
2022-11-18T16:14:20.541Z,0.75
2022-11-18T16:16:49.349Z,2.90
2022-11-18T16:19:19.113Z,1.35
2022-11-18T16:21:51.863Z,0.82
2022-11-18T16:24:24.090Z,1.00
2022-11-18T16:26:50.809Z,1.20
2022-11-18T16:29:18.507Z,1.00
2022-11-18T16:32:11.509Z,0.75
2022-11-18T16:34:38.432Z,1.00
2022-11-18T16:37:06.138Z,1.60
2022-11-18T16:39:32.630Z,1.33
2022-11-18T16:42:07.794Z,0.80
2022-11-18T16:44:35.543Z,1.88
2022-11-18T16:47:12.655Z,1.70
2022-11-18T16:49:40.720Z,1.98
2022-11-18T16:52:10.502Z,1.55
2022-11-18T16:54:44.437Z,1.60
2022-11-18T16:57:12.241Z,1.20
2022-11-18T16:59:51.288Z,1.58
2022-11-18T17:02:20.694Z,1.13
2022-11-18T17:04:50.200Z,1.25
2022-11-18T17:07:17.893Z,1.35
2022-11-18T17:09:44.448Z,1.10
2022-11-18T17:12:10.974Z,0.73
2022-11-18T17:14:39.969Z,0.90
2022-11-18T17:17:07.692Z,1.85
2022-11-18T17:19:34.146Z,1.15
2022-11-18T17:22:00.670Z,1.27
2022-11-18T17:24:27.209Z,1.52
2022-11-18T17:26:55.409Z,1.92
2022-11-18T17:29:22.220Z,1.85
2022-11-18T17:31:49.169Z,1.75
2022-11-18T17:34:16.562Z,1.58
2022-11-18T17:36:47.131Z,1.60
2022-11-18T17:39:13.801Z,1.00
2022-11-18T17:41:58.990Z,1.40
2022-11-18T17:44:27.527Z,1.25
2022-11-18T17:46:54.087Z,1.38
2022-11-18T17:49:23.470Z,1.23
2022-11-18T17:51:51.321Z,1.50
2022-11-18T17:54:18.765Z,1.60
2022-11-18T17:56:45.576Z,1.60
2022-11-18T17:59:14.377Z,1.58
2022-11-18T18:01:41.124Z,1.67
2022-11-18T18:04:08.558Z,1.40
2022-11-18T18:06:38.146Z,1.55
2022-11-18T18:09:04.672Z,1.40
2022-11-18T18:11:31.253Z,1.50
2022-11-18T18:14:12.839Z,2.55
2022-11-18T18:16:45.157Z,2.90
2022-11-18T18:19:20.429Z,2.65
2022-11-18T18:21:47.536Z,3.15
2022-11-18T18:24:20.072Z,2.20
2022-11-18T18:26:47.199Z,1.83
2022-11-18T18:29:14.349Z,2.58
2022-11-18T18:31:41.225Z,2.88
2022-11-18T18:34:08.040Z,2.75
2022-11-18T18:36:38.269Z,2.15
2022-11-18T18:39:05.063Z,2.58
2022-11-18T18:41:57.464Z,2.28
2022-11-18T18:44:44.259Z,2.33
2022-11-18T18:47:10.794Z,2.45
2022-11-18T18:49:37.284Z,2.83
2022-11-18T18:52:03.982Z,4.75
2022-11-18T18:54:30.821Z,11.85
2022-11-18T18:56:57.416Z,7.00
2022-11-18T18:59:23.926Z,5.82
2022-11-18T19:01:50.635Z,4.57
2022-11-18T19:04:18.091Z,6.30
2022-11-18T19:06:54.928Z,8.52
2022-11-18T19:09:28.581Z,4.65
2022-11-18T19:12:20.365Z,4.05
2022-11-18T19:14:53.215Z,2.67
2022-11-18T19:20:50.069Z,3.67
2022-11-18T19:23:35.839Z,2.23
2022-11-18T19:26:06.371Z,2.30
2022-11-18T19:28:35.813Z,6.78
2022-11-18T19:31:02.378Z,4.13
2022-11-18T19:33:33.314Z,2.90
2022-11-18T19:36:05.091Z,3.08
2022-11-18T19:38:36.779Z,2.15
2022-11-18T19:41:09.456Z,2.67
2022-11-18T19:43:36.318Z,3.13
2022-11-18T19:46:04.189Z,2.10
2022-11-18T19:48:31.464Z,2.00
2022-11-18T19:51:14.941Z,2.17
2022-11-18T19:53:42.189Z,2.77
2022-11-18T19:56:11.624Z,1.88
2022-11-18T19:58:40.175Z,2.50
2022-11-18T20:01:16.798Z,2.45
2022-11-18T20:03:45.505Z,2.58
2022-11-18T20:06:12.654Z,2.60
2022-11-18T20:08:41.389Z,2.55
2022-11-18T20:11:10.288Z,2.10
2022-11-18T20:13:38.078Z,1.77
2022-11-18T20:16:51.478Z,3.38
2022-11-18T20:19:18.167Z,2.67
2022-11-18T20:21:44.928Z,2.53
2022-11-18T20:24:16.829Z,2.30
2022-11-18T20:26:44.212Z,2.70
2022-11-18T20:29:11.156Z,3.05
2022-11-18T20:31:46.010Z,2.75
2022-11-18T20:34:25.107Z,3.53
2022-11-18T20:37:03.731Z,2.33
2022-11-18T20:39:54.956Z,1.85
2022-11-18T20:43:02.077Z,1.77
2022-11-18T20:45:28.823Z,1.70
2022-11-18T20:48:02.630Z,2.00
2022-11-18T20:53:20.959Z,1.80
2022-11-18T20:56:05.353Z,1.75
2022-11-18T21:01:40.715Z,2.53
2022-11-18T21:04:18.947Z,2.20
2022-11-18T21:06:49.441Z,2.47
2022-11-18T21:09:22.722Z,1.85
2022-11-18T21:14:45.941Z,1.40
2022-11-18T21:17:24.353Z,1.88
2022-11-18T21:20:25.646Z,1.75
2022-11-18T21:23:02.552Z,1.67
2022-11-18T21:25:45.587Z,1.77
2022-11-18T21:28:23.787Z,1.27
2022-11-18T21:31:01.703Z,1.50
2022-11-18T21:36:10.947Z,1.30
2022-11-18T21:38:37.660Z,1.55
2022-11-18T21:41:05.335Z,2.00
2022-11-18T21:44:03.887Z,3.30
2022-11-18T21:46:33.383Z,2.75
2022-11-18T21:49:06.362Z,3.53
2022-11-18T21:51:36.386Z,3.15
2022-11-18T21:54:08.762Z,3.28
2022-11-18T21:56:37.704Z,2.60
2022-11-18T21:59:10.850Z,3.00
2022-11-18T22:01:40.214Z,3.00
2022-11-18T22:04:07.392Z,3.78
2022-11-18T22:06:36.231Z,2.45
2022-11-18T22:09:10.404Z,3.05
2022-11-18T22:11:39.804Z,2.20
2022-11-18T22:14:12.204Z,2.85
2022-11-18T22:16:39.022Z,2.30
2022-11-18T22:19:08.344Z,2.50
2022-11-18T22:21:35.128Z,2.47
2022-11-18T22:24:03.313Z,3.38
2022-11-18T22:26:31.559Z,3.42
2022-11-18T22:28:58.665Z,4.68
2022-11-18T22:31:27.005Z,3.55
2022-11-18T22:33:54.428Z,2.90
2022-11-18T22:36:23.314Z,3.10
2022-11-18T22:38:50.162Z,2.95
2022-11-18T22:41:44.209Z,3.28
2022-11-18T22:44:14.591Z,3.97
2022-11-18T22:46:43.223Z,3.65
2022-11-18T22:49:11.052Z,2.70
2022-11-18T22:51:38.861Z,3.28
2022-11-18T22:56:56.752Z,3.83
2022-11-18T22:59:23.700Z,5.03
